sensor_id;sensor_type;location;lat;lon;timestamp;temperature;humidity
17252;DHT22;8742;51.716;8.790;2023-08-21T00:00:42;19.50;99.90
17252;DHT22;8742;51.716;8.790;2023-08-21T00:03:09;19.60;99.90
17252;DHT22;8742;51.716;8.790;2023-08-21T00:05:36;19.60;99.90
17252;DHT22;8742;51.716;8.790;2023-08-21T00:08:03;19.60;99.90
17252;DHT22;8742;51.716;8.790;2023-08-21T00:10:30;19.50;99.90
17252;DHT22;8742;51.716;8.790;2023-08-21T00:12:57;19.50;99.90
17252;DHT22;8742;51.716;8.790;2023-08-21T00:15:24;19.50;99.90
17252;DHT22;8742;51.716;8.790;2023-08-21T00:17:52;19.50;99.90
17252;DHT22;8742;51.716;8.790;2023-08-21T00:20:19;19.50;99.90
17252;DHT22;8742;51.716;8.790;2023-08-21T00:22:46;19.50;99.90
17252;DHT22;8742;51.716;8.790;2023-08-21T00:25:13;19.50;99.90
17252;DHT22;8742;51.716;8.790;2023-08-21T00:27:39;19.50;99.90
17252;DHT22;8742;51.716;8.790;2023-08-21T00:30:07;19.60;99.90
17252;DHT22;8742;51.716;8.790;2023-08-21T00:32:34;19.60;99.90
17252;DHT22;8742;51.716;8.790;2023-08-21T00:35:03;19.70;99.90
17252;DHT22;8742;51.716;8.790;2023-08-21T00:37:30;19.70;99.90
17252;DHT22;8742;51.716;8.790;2023-08-21T00:39:57;19.70;99.90
17252;DHT22;8742;51.716;8.790;2023-08-21T00:42:24;19.70;99.90
17252;DHT22;8742;51.716;8.790;2023-08-21T00:44:50;19.70;99.90
17252;DHT22;8742;51.716;8.790;2023-08-21T00:47:17;19.70;99.90
17252;DHT22;8742;51.716;8.790;2023-08-21T00:49:45;19.70;99.90
17252;DHT22;8742;51.716;8.790;2023-08-21T00:52:14;19.70;99.90
17252;DHT22;8742;51.716;8.790;2023-08-21T00:54:43;19.60;99.90
17252;DHT22;8742;51.716;8.790;2023-08-21T00:57:10;19.50;99.90
17252;DHT22;8742;51.716;8.790;2023-08-21T00:59:37;19.50;99.90
17252;DHT22;8742;51.716;8.790;2023-08-21T01:02:04;19.40;99.90
17252;DHT22;8742;51.716;8.790;2023-08-21T01:04:31;19.30;99.90
17252;DHT22;8742;51.716;8.790;2023-08-21T01:06:58;19.20;99.90
17252;DHT22;8742;51.716;8.790;2023-08-21T01:09:31;19.20;99.90
17252;DHT22;8742;51.716;8.790;2023-08-21T01:12:09;19.10;99.90
17252;DHT22;8742;51.716;8.790;2023-08-21T01:14:44;19.00;99.90
17252;DHT22;8742;51.716;8.790;2023-08-21T01:17:16;18.90;99.90
17252;DHT22;8742;51.716;8.790;2023-08-21T01:19:47;18.80;99.90
17252;DHT22;8742;51.716;8.790;2023-08-21T01:22:14;18.80;99.90
17252;DHT22;8742;51.716;8.790;2023-08-21T01:24:42;18.70;99.90
17252;DHT22;8742;51.716;8.790;2023-08-21T01:27:10;18.70;99.90
17252;DHT22;8742;51.716;8.790;2023-08-21T01:29:37;18.70;99.90
17252;DHT22;8742;51.716;8.790;2023-08-21T01:32:07;18.70;99.90
17252;DHT22;8742;51.716;8.790;2023-08-21T01:34:37;18.70;99.90
17252;DHT22;8742;51.716;8.790;2023-08-21T01:37:06;18.70;99.90
17252;DHT22;8742;51.716;8.790;2023-08-21T01:39:34;18.60;99.90
17252;DHT22;8742;51.716;8.790;2023-08-21T01:42:02;18.60;99.90
17252;DHT22;8742;51.716;8.790;2023-08-21T01:44:29;18.60;99.90
17252;DHT22;8742;51.716;8.790;2023-08-21T01:46:56;18.50;99.90
17252;DHT22;8742;51.716;8.790;2023-08-21T01:49:23;18.50;99.90
17252;DHT22;8742;51.716;8.790;2023-08-21T01:51:50;18.40;99.90
17252;DHT22;8742;51.716;8.790;2023-08-21T01:54:17;18.30;99.90
17252;DHT22;8742;51.716;8.790;2023-08-21T01:56:43;18.30;99.90
17252;DHT22;8742;51.716;8.790;2023-08-21T01:59:12;18.20;99.90
17252;DHT22;8742;51.716;8.790;2023-08-21T02:01:40;18.10;99.90
17252;DHT22;8742;51.716;8.790;2023-08-21T02:04:06;18.10;99.90
17252;DHT22;8742;51.716;8.790;2023-08-21T02:06:33;18.10;99.90
17252;DHT22;8742;51.716;8.790;2023-08-21T02:09:00;18.00;99.90
17252;DHT22;8742;51.716;8.790;2023-08-21T02:11:27;18.00;99.90
17252;DHT22;8742;51.716;8.790;2023-08-21T02:13:53;18.00;99.90
17252;DHT22;8742;51.716;8.790;2023-08-21T02:16:22;18.00;99.90
17252;DHT22;8742;51.716;8.790;2023-08-21T02:18:48;17.90;99.90
17252;DHT22;8742;51.716;8.790;2023-08-21T02:21:15;17.80;99.90
17252;DHT22;8742;51.716;8.790;2023-08-21T02:23:42;17.80;99.90
17252;DHT22;8742;51.716;8.790;2023-08-21T02:26:09;17.70;99.90
17252;DHT22;8742;51.716;8.790;2023-08-21T02:28:36;17.70;99.90
17252;DHT22;8742;51.716;8.790;2023-08-21T02:31:03;17.70;99.90
17252;DHT22;8742;51.716;8.790;2023-08-21T02:33:32;17.60;99.90
17252;DHT22;8742;51.716;8.790;2023-08-21T02:35:58;17.60;99.90
17252;DHT22;8742;51.716;8.790;2023-08-21T02:38:26;17.60;99.90
17252;DHT22;8742;51.716;8.790;2023-08-21T02:40:53;17.60;99.90
17252;DHT22;8742;51.716;8.790;2023-08-21T02:43:20;17.50;99.90
17252;DHT22;8742;51.716;8.790;2023-08-21T02:45:46;17.50;99.90
17252;DHT22;8742;51.716;8.790;2023-08-21T02:48:13;17.50;99.90
17252;DHT22;8742;51.716;8.790;2023-08-21T02:50:41;17.40;99.90
17252;DHT22;8742;51.716;8.790;2023-08-21T02:53:08;17.40;99.90
17252;DHT22;8742;51.716;8.790;2023-08-21T02:55:35;17.50;99.90
17252;DHT22;8742;51.716;8.790;2023-08-21T02:58:02;17.50;99.90
17252;DHT22;8742;51.716;8.790;2023-08-21T03:00:29;17.50;99.90
17252;DHT22;8742;51.716;8.790;2023-08-21T03:02:56;17.50;99.90
17252;DHT22;8742;51.716;8.790;2023-08-21T03:05:23;17.50;99.90
17252;DHT22;8742;51.716;8.790;2023-08-21T03:07:51;17.50;99.90
17252;DHT22;8742;51.716;8.790;2023-08-21T03:10:18;17.40;99.90
17252;DHT22;8742;51.716;8.790;2023-08-21T03:12:46;17.40;99.90
17252;DHT22;8742;51.716;8.790;2023-08-21T03:15:13;17.40;99.90
17252;DHT22;8742;51.716;8.790;2023-08-21T03:17:39;17.30;99.90
17252;DHT22;8742;51.716;8.790;2023-08-21T03:20:07;17.30;99.90
17252;DHT22;8742;51.716;8.790;2023-08-21T03:22:34;17.20;99.90
17252;DHT22;8742;51.716;8.790;2023-08-21T03:25:02;17.20;99.90
17252;DHT22;8742;51.716;8.790;2023-08-21T03:27:29;17.20;99.90
17252;DHT22;8742;51.716;8.790;2023-08-21T03:29:56;17.20;99.90
17252;DHT22;8742;51.716;8.790;2023-08-21T03:32:26;17.20;99.90
17252;DHT22;8742;51.716;8.790;2023-08-21T03:34:53;17.30;99.90
17252;DHT22;8742;51.716;8.790;2023-08-21T03:37:20;17.30;99.90
17252;DHT22;8742;51.716;8.790;2023-08-21T03:39:47;17.30;99.90
17252;DHT22;8742;51.716;8.790;2023-08-21T03:42:15;17.40;99.90
17252;DHT22;8742;51.716;8.790;2023-08-21T03:44:42;17.40;99.90
17252;DHT22;8742;51.716;8.790;2023-08-21T03:47:09;17.40;99.90
17252;DHT22;8742;51.716;8.790;2023-08-21T03:49:36;17.30;99.90
17252;DHT22;8742;51.716;8.790;2023-08-21T03:52:03;17.30;99.90
17252;DHT22;8742;51.716;8.790;2023-08-21T03:54:30;17.30;99.90
17252;DHT22;8742;51.716;8.790;2023-08-21T03:56:57;17.20;99.90
17252;DHT22;8742;51.716;8.790;2023-08-21T03:59:25;17.20;99.90
17252;DHT22;8742;51.716;8.790;2023-08-21T04:01:53;17.20;99.90
17252;DHT22;8742;51.716;8.790;2023-08-21T04:04:20;17.20;99.90
17252;DHT22;8742;51.716;8.790;2023-08-21T04:06:47;17.20;99.90
17252;DHT22;8742;51.716;8.790;2023-08-21T04:09:14;17.20;99.90
17252;DHT22;8742;51.716;8.790;2023-08-21T04:11:41;17.20;99.90
17252;DHT22;8742;51.716;8.790;2023-08-21T04:14:08;17.20;99.90
17252;DHT22;8742;51.716;8.790;2023-08-21T04:16:36;17.20;99.90
17252;DHT22;8742;51.716;8.790;2023-08-21T04:19:03;17.20;99.90
17252;DHT22;8742;51.716;8.790;2023-08-21T04:21:30;17.20;99.90
17252;DHT22;8742;51.716;8.790;2023-08-21T04:23:57;17.20;99.90
17252;DHT22;8742;51.716;8.790;2023-08-21T04:26:24;17.20;99.90
17252;DHT22;8742;51.716;8.790;2023-08-21T04:28:51;17.20;99.90
17252;DHT22;8742;51.716;8.790;2023-08-21T04:31:18;17.30;99.90
17252;DHT22;8742;51.716;8.790;2023-08-21T04:33:46;17.20;99.90
17252;DHT22;8742;51.716;8.790;2023-08-21T04:36:16;17.30;99.90
17252;DHT22;8742;51.716;8.790;2023-08-21T04:38:43;17.30;99.90
17252;DHT22;8742;51.716;8.790;2023-08-21T04:41:10;17.30;99.90
17252;DHT22;8742;51.716;8.790;2023-08-21T04:43:40;17.30;99.90
17252;DHT22;8742;51.716;8.790;2023-08-21T04:46:07;17.40;99.90
17252;DHT22;8742;51.716;8.790;2023-08-21T04:48:33;17.50;99.90
17252;DHT22;8742;51.716;8.790;2023-08-21T04:51:02;17.60;99.90
17252;DHT22;8742;51.716;8.790;2023-08-21T04:53:29;17.70;99.90
17252;DHT22;8742;51.716;8.790;2023-08-21T04:55:58;17.80;99.90
17252;DHT22;8742;51.716;8.790;2023-08-21T04:58:25;17.80;99.90
17252;DHT22;8742;51.716;8.790;2023-08-21T05:00:52;17.80;99.90
17252;DHT22;8742;51.716;8.790;2023-08-21T05:03:18;17.90;99.90
17252;DHT22;8742;51.716;8.790;2023-08-21T05:05:52;17.80;99.90
17252;DHT22;8742;51.716;8.790;2023-08-21T05:08:21;17.90;99.90
17252;DHT22;8742;51.716;8.790;2023-08-21T05:10:48;17.90;99.90
17252;DHT22;8742;51.716;8.790;2023-08-21T05:13:14;17.90;99.90
17252;DHT22;8742;51.716;8.790;2023-08-21T05:15:43;17.90;99.90
17252;DHT22;8742;51.716;8.790;2023-08-21T05:18:10;17.90;99.90
17252;DHT22;8742;51.716;8.790;2023-08-21T05:20:37;17.90;99.90
17252;DHT22;8742;51.716;8.790;2023-08-21T05:23:05;17.90;99.90
17252;DHT22;8742;51.716;8.790;2023-08-21T05:25:33;18.00;99.90
17252;DHT22;8742;51.716;8.790;2023-08-21T05:28:00;18.00;99.90
17252;DHT22;8742;51.716;8.790;2023-08-21T05:30:27;18.00;99.90
17252;DHT22;8742;51.716;8.790;2023-08-21T05:32:53;18.20;99.90
17252;DHT22;8742;51.716;8.790;2023-08-21T05:35:20;18.30;99.90
17252;DHT22;8742;51.716;8.790;2023-08-21T05:37:47;18.40;99.90
17252;DHT22;8742;51.716;8.790;2023-08-21T05:40:14;18.50;99.90
17252;DHT22;8742;51.716;8.790;2023-08-21T05:42:42;18.60;99.90
17252;DHT22;8742;51.716;8.790;2023-08-21T05:45:09;18.80;99.90
17252;DHT22;8742;51.716;8.790;2023-08-21T05:47:36;18.90;99.90
17252;DHT22;8742;51.716;8.790;2023-08-21T05:50:03;19.00;99.90
17252;DHT22;8742;51.716;8.790;2023-08-21T05:52:30;19.10;99.90
17252;DHT22;8742;51.716;8.790;2023-08-21T05:54:57;19.30;99.90
17252;DHT22;8742;51.716;8.790;2023-08-21T05:57:24;19.40;99.90
17252;DHT22;8742;51.716;8.790;2023-08-21T05:59:52;19.50;99.90
17252;DHT22;8742;51.716;8.790;2023-08-21T06:02:19;19.50;99.90
17252;DHT22;8742;51.716;8.790;2023-08-21T06:04:46;19.50;99.90
17252;DHT22;8742;51.716;8.790;2023-08-21T06:07:13;19.60;99.90
17252;DHT22;8742;51.716;8.790;2023-08-21T06:09:39;19.60;99.90
17252;DHT22;8742;51.716;8.790;2023-08-21T06:12:07;19.60;99.90
17252;DHT22;8742;51.716;8.790;2023-08-21T06:14:34;19.70;99.90
17252;DHT22;8742;51.716;8.790;2023-08-21T06:17:03;19.90;99.90
17252;DHT22;8742;51.716;8.790;2023-08-21T06:19:30;20.00;99.90
17252;DHT22;8742;51.716;8.790;2023-08-21T06:21:57;20.10;99.90
17252;DHT22;8742;51.716;8.790;2023-08-21T06:24:24;20.20;99.90
17252;DHT22;8742;51.716;8.790;2023-08-21T06:26:52;20.30;99.90
17252;DHT22;8742;51.716;8.790;2023-08-21T06:29:19;20.40;99.90
17252;DHT22;8742;51.716;8.790;2023-08-21T06:31:46;20.40;99.90
17252;DHT22;8742;51.716;8.790;2023-08-21T06:34:14;20.40;99.90
17252;DHT22;8742;51.716;8.790;2023-08-21T06:36:41;20.50;99.90
17252;DHT22;8742;51.716;8.790;2023-08-21T06:39:08;20.60;99.90
17252;DHT22;8742;51.716;8.790;2023-08-21T06:41:34;20.70;99.90
17252;DHT22;8742;51.716;8.790;2023-08-21T06:44:01;20.80;99.90
17252;DHT22;8742;51.716;8.790;2023-08-21T06:46:28;20.90;99.90
17252;DHT22;8742;51.716;8.790;2023-08-21T06:48:55;21.00;99.90
17252;DHT22;8742;51.716;8.790;2023-08-21T06:51:23;21.00;99.90
17252;DHT22;8742;51.716;8.790;2023-08-21T06:53:50;21.10;99.90
17252;DHT22;8742;51.716;8.790;2023-08-21T06:56:17;21.20;99.90
17252;DHT22;8742;51.716;8.790;2023-08-21T06:58:43;21.30;99.90
17252;DHT22;8742;51.716;8.790;2023-08-21T07:01:10;21.40;99.90
17252;DHT22;8742;51.716;8.790;2023-08-21T07:03:37;21.50;99.90
17252;DHT22;8742;51.716;8.790;2023-08-21T07:06:04;21.60;99.90
17252;DHT22;8742;51.716;8.790;2023-08-21T07:08:32;21.70;99.90
17252;DHT22;8742;51.716;8.790;2023-08-21T07:11:02;21.90;99.90
17252;DHT22;8742;51.716;8.790;2023-08-21T07:13:29;22.00;99.90
17252;DHT22;8742;51.716;8.790;2023-08-21T07:15:56;22.20;99.90
17252;DHT22;8742;51.716;8.790;2023-08-21T07:18:23;22.30;99.90
17252;DHT22;8742;51.716;8.790;2023-08-21T07:20:52;22.30;99.90
17252;DHT22;8742;51.716;8.790;2023-08-21T07:23:19;22.40;99.90
17252;DHT22;8742;51.716;8.790;2023-08-21T07:25:48;22.50;99.90
17252;DHT22;8742;51.716;8.790;2023-08-21T07:28:14;22.60;99.90
17252;DHT22;8742;51.716;8.790;2023-08-21T07:30:41;22.80;99.90
17252;DHT22;8742;51.716;8.790;2023-08-21T07:33:08;22.90;99.90
17252;DHT22;8742;51.716;8.790;2023-08-21T07:35:35;23.10;99.90
17252;DHT22;8742;51.716;8.790;2023-08-21T07:38:02;23.30;99.90
17252;DHT22;8742;51.716;8.790;2023-08-21T07:40:29;23.40;99.90
17252;DHT22;8742;51.716;8.790;2023-08-21T07:42:58;23.60;99.90
17252;DHT22;8742;51.716;8.790;2023-08-21T07:45:25;23.70;99.90
17252;DHT22;8742;51.716;8.790;2023-08-21T07:47:52;23.90;99.90
17252;DHT22;8742;51.716;8.790;2023-08-21T07:50:18;24.10;99.90
17252;DHT22;8742;51.716;8.790;2023-08-21T07:52:45;24.40;99.90
17252;DHT22;8742;51.716;8.790;2023-08-21T07:55:12;24.70;99.90
17252;DHT22;8742;51.716;8.790;2023-08-21T07:57:39;24.80;99.90
17252;DHT22;8742;51.716;8.790;2023-08-21T08:00:08;24.90;99.90
17252;DHT22;8742;51.716;8.790;2023-08-21T08:02:35;25.00;99.90
17252;DHT22;8742;51.716;8.790;2023-08-21T08:05:03;25.20;99.90
17252;DHT22;8742;51.716;8.790;2023-08-21T08:07:31;25.30;99.90
17252;DHT22;8742;51.716;8.790;2023-08-21T08:09:58;25.40;99.90
17252;DHT22;8742;51.716;8.790;2023-08-21T08:12:25;25.40;99.90
17252;DHT22;8742;51.716;8.790;2023-08-21T08:14:52;25.60;99.90
17252;DHT22;8742;51.716;8.790;2023-08-21T08:17:20;26.10;99.90
17252;DHT22;8742;51.716;8.790;2023-08-21T08:19:47;26.80;99.90
17252;DHT22;8742;51.716;8.790;2023-08-21T08:22:14;27.20;99.90
17252;DHT22;8742;51.716;8.790;2023-08-21T08:24:40;27.20;99.90
17252;DHT22;8742;51.716;8.790;2023-08-21T08:27:07;27.00;99.90
17252;DHT22;8742;51.716;8.790;2023-08-21T08:29:35;26.70;99.90
17252;DHT22;8742;51.716;8.790;2023-08-21T08:32:02;27.00;99.90
17252;DHT22;8742;51.716;8.790;2023-08-21T08:34:31;27.50;99.90
17252;DHT22;8742;51.716;8.790;2023-08-21T08:36:57;27.60;99.90
17252;DHT22;8742;51.716;8.790;2023-08-21T08:39:24;28.00;99.90
17252;DHT22;8742;51.716;8.790;2023-08-21T08:41:58;28.30;99.90
17252;DHT22;8742;51.716;8.790;2023-08-21T08:44:25;28.80;99.90
17252;DHT22;8742;51.716;8.790;2023-08-21T08:46:52;29.40;99.90
17252;DHT22;8742;51.716;8.790;2023-08-21T08:49:21;29.70;99.90
17252;DHT22;8742;51.716;8.790;2023-08-21T08:51:50;30.00;99.90
17252;DHT22;8742;51.716;8.790;2023-08-21T08:54:17;30.10;99.90
17252;DHT22;8742;51.716;8.790;2023-08-21T08:56:45;30.40;99.90
17252;DHT22;8742;51.716;8.790;2023-08-21T08:59:12;30.40;99.90
17252;DHT22;8742;51.716;8.790;2023-08-21T09:01:40;30.30;99.90
17252;DHT22;8742;51.716;8.790;2023-08-21T09:04:07;30.20;99.90
17252;DHT22;8742;51.716;8.790;2023-08-21T09:06:34;30.20;99.90
17252;DHT22;8742;51.716;8.790;2023-08-21T09:09:03;30.20;99.90
17252;DHT22;8742;51.716;8.790;2023-08-21T09:11:30;30.40;99.90
17252;DHT22;8742;51.716;8.790;2023-08-21T09:13:57;30.60;99.90
17252;DHT22;8742;51.716;8.790;2023-08-21T09:16:25;31.00;99.90
17252;DHT22;8742;51.716;8.790;2023-08-21T09:18:54;31.40;99.90
17252;DHT22;8742;51.716;8.790;2023-08-21T09:21:23;31.50;99.90
17252;DHT22;8742;51.716;8.790;2023-08-21T09:23:56;31.60;99.90
17252;DHT22;8742;51.716;8.790;2023-08-21T09:26:26;31.60;99.90
17252;DHT22;8742;51.716;8.790;2023-08-21T09:28:53;31.80;99.90
17252;DHT22;8742;51.716;8.790;2023-08-21T09:31:23;32.00;99.90
17252;DHT22;8742;51.716;8.790;2023-08-21T09:33:57;32.00;99.90
17252;DHT22;8742;51.716;8.790;2023-08-21T09:36:24;32.00;99.90
17252;DHT22;8742;51.716;8.790;2023-08-21T09:38:51;31.90;99.90
17252;DHT22;8742;51.716;8.790;2023-08-21T09:41:22;31.70;99.90
17252;DHT22;8742;51.716;8.790;2023-08-21T09:43:51;31.60;99.90
17252;DHT22;8742;51.716;8.790;2023-08-21T09:46:24;31.80;99.90
17252;DHT22;8742;51.716;8.790;2023-08-21T09:48:52;31.90;99.90
17252;DHT22;8742;51.716;8.790;2023-08-21T09:51:19;32.20;99.80
17252;DHT22;8742;51.716;8.790;2023-08-21T09:53:47;32.40;99.90
17252;DHT22;8742;51.716;8.790;2023-08-21T09:56:14;32.70;99.90
17252;DHT22;8742;51.716;8.790;2023-08-21T09:58:41;32.90;98.60
17252;DHT22;8742;51.716;8.790;2023-08-21T10:01:11;32.90;98.20
17252;DHT22;8742;51.716;8.790;2023-08-21T10:03:40;32.70;97.50
17252;DHT22;8742;51.716;8.790;2023-08-21T10:06:08;32.50;97.70
17252;DHT22;8742;51.716;8.790;2023-08-21T10:08:37;32.20;98.10
17252;DHT22;8742;51.716;8.790;2023-08-21T10:11:06;32.10;98.10
17252;DHT22;8742;51.716;8.790;2023-08-21T10:13:36;31.80;98.20
17252;DHT22;8742;51.716;8.790;2023-08-21T10:16:03;31.50;98.30
17252;DHT22;8742;51.716;8.790;2023-08-21T10:18:33;31.40;98.70
17252;DHT22;8742;51.716;8.790;2023-08-21T10:21:12;31.40;98.90
17252;DHT22;8742;51.716;8.790;2023-08-21T10:23:39;31.70;98.90
17252;DHT22;8742;51.716;8.790;2023-08-21T10:26:09;32.10;99.50
17252;DHT22;8742;51.716;8.790;2023-08-21T10:28:49;32.60;98.70
17252;DHT22;8742;51.716;8.790;2023-08-21T10:31:33;32.80;98.10
17252;DHT22;8742;51.716;8.790;2023-08-21T10:34:03;32.80;97.80
17252;DHT22;8742;51.716;8.790;2023-08-21T10:39:21;32.80;97.30
17252;DHT22;8742;51.716;8.790;2023-08-21T10:41:54;32.90;97.90
17252;DHT22;8742;51.716;8.790;2023-08-21T10:44:46;33.10;98.10
17252;DHT22;8742;51.716;8.790;2023-08-21T10:47:18;33.30;98.00
17252;DHT22;8742;51.716;8.790;2023-08-21T10:49:47;33.20;97.50
17252;DHT22;8742;51.716;8.790;2023-08-21T10:52:14;33.30;96.70
17252;DHT22;8742;51.716;8.790;2023-08-21T10:54:48;33.40;97.10
17252;DHT22;8742;51.716;8.790;2023-08-21T10:57:15;33.60;97.00
17252;DHT22;8742;51.716;8.790;2023-08-21T10:59:53;33.70;94.80
17252;DHT22;8742;51.716;8.790;2023-08-21T11:02:20;33.70;96.60
17252;DHT22;8742;51.716;8.790;2023-08-21T11:04:49;33.60;96.00
17252;DHT22;8742;51.716;8.790;2023-08-21T11:07:16;33.20;96.00
17252;DHT22;8742;51.716;8.790;2023-08-21T11:09:43;32.70;96.30
17252;DHT22;8742;51.716;8.790;2023-08-21T11:12:12;32.40;96.30
17252;DHT22;8742;51.716;8.790;2023-08-21T11:17:13;32.50;97.10
17252;DHT22;8742;51.716;8.790;2023-08-21T11:19:41;32.30;96.40
17252;DHT22;8742;51.716;8.790;2023-08-21T11:22:10;32.10;96.20
17252;DHT22;8742;51.716;8.790;2023-08-21T11:24:42;31.90;96.20
17252;DHT22;8742;51.716;8.790;2023-08-21T11:27:09;31.80;96.00
17252;DHT22;8742;51.716;8.790;2023-08-21T11:29:38;31.90;96.60
17252;DHT22;8742;51.716;8.790;2023-08-21T11:32:12;32.30;96.90
17252;DHT22;8742;51.716;8.790;2023-08-21T11:34:40;33.10;97.50
17252;DHT22;8742;51.716;8.790;2023-08-21T11:37:09;33.70;95.40
17252;DHT22;8742;51.716;8.790;2023-08-21T11:39:44;33.70;94.20
17252;DHT22;8742;51.716;8.790;2023-08-21T11:42:11;33.50;94.70
17252;DHT22;8742;51.716;8.790;2023-08-21T11:44:50;33.70;95.60
17252;DHT22;8742;51.716;8.790;2023-08-21T11:47:19;34.30;94.90
17252;DHT22;8742;51.716;8.790;2023-08-21T11:49:49;34.90;94.40
17252;DHT22;8742;51.716;8.790;2023-08-21T11:52:20;35.50;93.90
17252;DHT22;8742;51.716;8.790;2023-08-21T11:54:49;36.10;93.50
17252;DHT22;8742;51.716;8.790;2023-08-21T11:57:16;36.70;93.40
17252;DHT22;8742;51.716;8.790;2023-08-21T11:59:48;37.20;92.50
17252;DHT22;8742;51.716;8.790;2023-08-21T12:02:17;37.20;92.00
17252;DHT22;8742;51.716;8.790;2023-08-21T12:04:44;36.90;90.70
17252;DHT22;8742;51.716;8.790;2023-08-21T12:07:12;36.80;91.40
17252;DHT22;8742;51.716;8.790;2023-08-21T12:09:45;36.90;91.10
17252;DHT22;8742;51.716;8.790;2023-08-21T12:12:12;36.80;88.60
17252;DHT22;8742;51.716;8.790;2023-08-21T12:14:39;36.70;90.50
17252;DHT22;8742;51.716;8.790;2023-08-21T12:17:06;36.80;90.30
17252;DHT22;8742;51.716;8.790;2023-08-21T12:19:33;36.80;87.70
17252;DHT22;8742;51.716;8.790;2023-08-21T12:22:00;36.80;89.70
17252;DHT22;8742;51.716;8.790;2023-08-21T12:24:26;36.80;87.20
17252;DHT22;8742;51.716;8.790;2023-08-21T12:26:55;36.80;89.10
17252;DHT22;8742;51.716;8.790;2023-08-21T12:29:22;36.90;89.00
17252;DHT22;8742;51.716;8.790;2023-08-21T12:31:49;36.90;87.60
17252;DHT22;8742;51.716;8.790;2023-08-21T12:34:16;37.10;86.80
17252;DHT22;8742;51.716;8.790;2023-08-21T12:36:43;37.20;84.80
17252;DHT22;8742;51.716;8.790;2023-08-21T12:39:09;37.10;85.10
17252;DHT22;8742;51.716;8.790;2023-08-21T12:41:36;37.30;85.00
17252;DHT22;8742;51.716;8.790;2023-08-21T12:44:04;37.50;86.30
17252;DHT22;8742;51.716;8.790;2023-08-21T12:46:37;37.70;84.20
17252;DHT22;8742;51.716;8.790;2023-08-21T12:49:14;37.80;81.80
17252;DHT22;8742;51.716;8.790;2023-08-21T12:52:07;38.10;83.50
17252;DHT22;8742;51.716;8.790;2023-08-21T12:54:39;38.00;81.80
17252;DHT22;8742;51.716;8.790;2023-08-21T12:57:24;38.00;80.70
17252;DHT22;8742;51.716;8.790;2023-08-21T12:59:52;37.80;80.80
17252;DHT22;8742;51.716;8.790;2023-08-21T13:02:19;37.70;79.50
17252;DHT22;8742;51.716;8.790;2023-08-21T13:04:48;37.70;80.10
17252;DHT22;8742;51.716;8.790;2023-08-21T13:07:17;37.90;81.20
17252;DHT22;8742;51.716;8.790;2023-08-21T13:09:44;38.20;81.90
17252;DHT22;8742;51.716;8.790;2023-08-21T13:12:11;38.00;80.70
17252;DHT22;8742;51.716;8.790;2023-08-21T13:14:37;37.30;79.40
17252;DHT22;8742;51.716;8.790;2023-08-21T13:17:06;36.80;81.70
17252;DHT22;8742;51.716;8.790;2023-08-21T13:19:32;36.50;80.20
17252;DHT22;8742;51.716;8.790;2023-08-21T13:21:59;36.30;80.00
17252;DHT22;8742;51.716;8.790;2023-08-21T13:24:26;36.70;81.40
17252;DHT22;8742;51.716;8.790;2023-08-21T13:26:54;37.30;83.80
17252;DHT22;8742;51.716;8.790;2023-08-21T13:29:23;38.00;80.80
17252;DHT22;8742;51.716;8.790;2023-08-21T13:31:50;38.60;80.70
17252;DHT22;8742;51.716;8.790;2023-08-21T13:34:18;39.00;77.10
17252;DHT22;8742;51.716;8.790;2023-08-21T13:36:45;38.90;76.50
17252;DHT22;8742;51.716;8.790;2023-08-21T13:39:12;38.80;78.10
17252;DHT22;8742;51.716;8.790;2023-08-21T13:41:41;38.60;75.50
17252;DHT22;8742;51.716;8.790;2023-08-21T13:44:07;38.30;75.80
17252;DHT22;8742;51.716;8.790;2023-08-21T13:46:34;38.10;77.10
17252;DHT22;8742;51.716;8.790;2023-08-21T13:49:07;38.00;75.10
17252;DHT22;8742;51.716;8.790;2023-08-21T13:51:36;37.70;74.30
17252;DHT22;8742;51.716;8.790;2023-08-21T13:54:03;37.60;75.60
17252;DHT22;8742;51.716;8.790;2023-08-21T13:56:30;37.50;75.60
17252;DHT22;8742;51.716;8.790;2023-08-21T13:58:58;37.30;77.50
17252;DHT22;8742;51.716;8.790;2023-08-21T14:01:25;37.00;76.20
17252;DHT22;8742;51.716;8.790;2023-08-21T14:03:52;36.30;76.20
17252;DHT22;8742;51.716;8.790;2023-08-21T14:06:19;35.60;77.50
17252;DHT22;8742;51.716;8.790;2023-08-21T14:08:53;34.90;78.60
17252;DHT22;8742;51.716;8.790;2023-08-21T14:11:20;34.10;79.00
17252;DHT22;8742;51.716;8.790;2023-08-21T14:13:47;33.50;80.20
17252;DHT22;8742;51.716;8.790;2023-08-21T14:16:14;33.00;81.20
17252;DHT22;8742;51.716;8.790;2023-08-21T14:23:44;32.80;82.20
17252;DHT22;8742;51.716;8.790;2023-08-21T14:26:12;33.00;80.20
17252;DHT22;8742;51.716;8.790;2023-08-21T14:28:39;32.80;81.00
17252;DHT22;8742;51.716;8.790;2023-08-21T14:31:05;32.70;81.80
17252;DHT22;8742;51.716;8.790;2023-08-21T14:33:32;32.80;81.80
17252;DHT22;8742;51.716;8.790;2023-08-21T14:35:59;33.50;81.90
17252;DHT22;8742;51.716;8.790;2023-08-21T14:38:26;34.30;80.10
17252;DHT22;8742;51.716;8.790;2023-08-21T14:40:53;35.10;78.70
17252;DHT22;8742;51.716;8.790;2023-08-21T14:43:21;35.90;78.40
17252;DHT22;8742;51.716;8.790;2023-08-21T14:45:48;36.60;77.60
17252;DHT22;8742;51.716;8.790;2023-08-21T14:48:16;37.30;76.80
17252;DHT22;8742;51.716;8.790;2023-08-21T14:50:43;37.70;73.80
17252;DHT22;8742;51.716;8.790;2023-08-21T14:53:10;38.30;75.50
17252;DHT22;8742;51.716;8.790;2023-08-21T14:55:37;38.70;74.20
17252;DHT22;8742;51.716;8.790;2023-08-21T14:58:03;39.00;72.20
17252;DHT22;8742;51.716;8.790;2023-08-21T15:00:34;39.40;74.20
17252;DHT22;8742;51.716;8.790;2023-08-21T15:03:00;39.80;73.50
17252;DHT22;8742;51.716;8.790;2023-08-21T15:05:28;40.00;73.20
17252;DHT22;8742;51.716;8.790;2023-08-21T15:07:55;40.30;73.90
17252;DHT22;8742;51.716;8.790;2023-08-21T15:10:25;40.70;73.40
17252;DHT22;8742;51.716;8.790;2023-08-21T15:12:52;41.00;70.30
17252;DHT22;8742;51.716;8.790;2023-08-21T15:15:19;41.30;70.70
17252;DHT22;8742;51.716;8.790;2023-08-21T15:17:48;41.50;70.30
17252;DHT22;8742;51.716;8.790;2023-08-21T15:20:15;41.40;69.60
17252;DHT22;8742;51.716;8.790;2023-08-21T15:22:42;40.70;70.30
17252;DHT22;8742;51.716;8.790;2023-08-21T15:25:09;39.80;70.60
17252;DHT22;8742;51.716;8.790;2023-08-21T15:27:37;38.70;70.10
17252;DHT22;8742;51.716;8.790;2023-08-21T15:30:05;37.60;72.40
17252;DHT22;8742;51.716;8.790;2023-08-21T15:32:32;36.50;73.70
17252;DHT22;8742;51.716;8.790;2023-08-21T15:35:00;35.80;75.00
17252;DHT22;8742;51.716;8.790;2023-08-21T15:37:29;35.10;75.80
17252;DHT22;8742;51.716;8.790;2023-08-21T15:39:56;34.40;76.00
17252;DHT22;8742;51.716;8.790;2023-08-21T15:42:22;33.90;76.40
17252;DHT22;8742;51.716;8.790;2023-08-21T15:44:49;33.40;78.00
17252;DHT22;8742;51.716;8.790;2023-08-21T15:47:16;33.60;77.90
17252;DHT22;8742;51.716;8.790;2023-08-21T15:49:43;34.40;77.80
17252;DHT22;8742;51.716;8.790;2023-08-21T15:52:11;35.20;76.60
17252;DHT22;8742;51.716;8.790;2023-08-21T15:54:38;36.00;75.30
17252;DHT22;8742;51.716;8.790;2023-08-21T15:57:05;36.60;73.00
17252;DHT22;8742;51.716;8.790;2023-08-21T15:59:31;37.10;73.20